createdAt,value
2023-02-28T00:00:24.581Z,6.25
2023-02-28T00:01:27.589Z,5.88
2023-02-28T00:02:47.962Z,5.90
2023-02-28T00:03:50.705Z,6.25
2023-02-28T00:04:53.906Z,6.32
2023-02-28T00:05:56.443Z,6.13
2023-02-28T00:06:57.994Z,6.20
2023-02-28T00:08:00.612Z,5.75
2023-02-28T00:09:03.266Z,6.60
2023-02-28T00:10:07.322Z,5.88
2023-02-28T00:11:11.641Z,7.00
2023-02-28T00:12:13.431Z,6.25
2023-02-28T00:13:15.940Z,6.03
2023-02-28T00:14:17.500Z,6.43
2023-02-28T00:15:20.803Z,6.88
2023-02-28T00:16:24.068Z,6.40
2023-02-28T00:17:26.775Z,5.80
2023-02-28T00:18:30.492Z,6.50
2023-02-28T00:19:33.990Z,6.07
2023-02-28T00:20:35.528Z,6.60
2023-02-28T00:21:38.071Z,5.68
2023-02-28T00:22:41.294Z,5.68
2023-02-28T00:23:44.710Z,6.70
2023-02-28T00:24:46.664Z,6.43
2023-02-28T00:25:50.231Z,6.55
2023-02-28T00:26:51.759Z,5.72
2023-02-28T00:27:54.469Z,6.20
2023-02-28T00:28:56.014Z,5.60
2023-02-28T00:29:58.515Z,5.50
2023-02-28T00:31:01.056Z,7.45
2023-02-28T00:32:06.329Z,6.50
2023-02-28T00:33:07.898Z,6.30
2023-02-28T00:34:10.701Z,6.50
2023-02-28T00:35:13.070Z,5.88
2023-02-28T00:36:15.753Z,6.28
2023-02-28T00:37:17.463Z,5.90
2023-02-28T00:38:20.038Z,6.78
2023-02-28T00:39:22.256Z,5.80
2023-02-28T00:40:24.862Z,6.45
2023-02-28T00:41:26.588Z,5.80
2023-02-28T00:42:29.219Z,5.60
2023-02-28T00:43:31.430Z,5.22
2023-02-28T00:44:34.552Z,7.25
2023-02-28T00:45:36.142Z,6.85
2023-02-28T00:46:38.676Z,5.63
2023-02-28T00:47:41.561Z,6.32
2023-02-28T00:48:44.428Z,5.53
2023-02-28T00:49:45.985Z,6.10
2023-02-28T00:50:50.455Z,5.72
2023-02-28T00:51:52.996Z,5.70
2023-02-28T00:52:55.492Z,6.25
2023-02-28T00:53:57.087Z,5.70
2023-02-28T00:54:59.760Z,5.60
2023-02-28T00:56:01.587Z,6.20
2023-02-28T00:57:04.249Z,6.20
2023-02-28T00:58:05.844Z,6.18
2023-02-28T00:59:08.513Z,6.00
2023-02-28T01:00:11.883Z,5.40
2023-02-28T01:01:18.753Z,5.70
2023-02-28T01:02:20.764Z,5.28
2023-02-28T01:03:24.766Z,5.22
2023-02-28T01:04:26.338Z,5.03
2023-02-28T01:05:29.292Z,5.55
2023-02-28T01:06:30.968Z,6.07
2023-02-28T01:07:33.510Z,5.72
2023-02-28T01:08:35.052Z,5.00
2023-02-28T01:09:37.565Z,5.38
2023-02-28T01:10:39.342Z,5.20
2023-02-28T01:11:44.764Z,4.95
2023-02-28T01:12:46.323Z,5.60
2023-02-28T01:13:49.251Z,5.95
2023-02-28T01:14:50.840Z,5.65
2023-02-28T01:15:55.351Z,5.55
2023-02-28T01:16:56.879Z,6.05
2023-02-28T01:17:59.502Z,6.35
2023-02-28T01:19:02.407Z,5.90
2023-02-28T01:20:05.930Z,5.38
2023-02-28T01:21:08.827Z,5.85
2023-02-28T01:22:11.322Z,6.20
2023-02-28T01:23:13.344Z,6.10
2023-02-28T01:24:16.028Z,5.68
2023-02-28T01:25:17.726Z,6.68
2023-02-28T01:26:23.019Z,6.22
2023-02-28T01:27:24.554Z,6.05
2023-02-28T01:28:27.234Z,5.60
2023-02-28T01:29:28.862Z,6.10
2023-02-28T01:30:32.140Z,6.22
2023-02-28T01:31:33.789Z,6.72
2023-02-28T01:32:37.460Z,5.95
2023-02-28T01:33:39.711Z,6.05
2023-02-28T01:34:43.891Z,5.60
2023-02-28T01:35:45.454Z,6.20
2023-02-28T01:36:47.934Z,5.18
2023-02-28T01:37:49.444Z,6.05
2023-02-28T01:38:52.338Z,6.10
2023-02-28T01:39:53.844Z,6.10
2023-02-28T01:40:57.072Z,5.97
2023-02-28T01:41:58.605Z,6.20
2023-02-28T01:43:01.137Z,5.50
2023-02-28T01:44:06.138Z,6.10
2023-02-28T01:45:23.867Z,6.80
2023-02-28T01:46:25.721Z,5.85
2023-02-28T01:47:31.890Z,6.45
2023-02-28T01:48:37.581Z,6.05
2023-02-28T01:49:40.815Z,6.38
2023-02-28T01:50:47.121Z,6.03
2023-02-28T01:51:51.783Z,5.90
2023-02-28T01:52:59.067Z,5.30
2023-02-28T01:54:03.917Z,5.47
2023-02-28T01:55:08.786Z,6.10
2023-02-28T01:56:15.901Z,5.93
2023-02-28T01:57:21.637Z,7.10
2023-02-28T01:58:23.935Z,6.90
2023-02-28T01:59:31.114Z,6.13
2023-02-28T02:00:33.849Z,5.82
2023-02-28T02:01:36.915Z,5.65
2023-02-28T02:02:38.700Z,6.00
2023-02-28T02:03:41.230Z,6.68
2023-02-28T02:04:50.908Z,5.80
2023-02-28T02:05:54.775Z,6.70
2023-02-28T02:06:56.435Z,6.43
2023-02-28T02:08:03.320Z,6.07
2023-02-28T02:09:05.466Z,5.70
2023-02-28T02:10:15.705Z,6.70
2023-02-28T02:11:19.967Z,5.93
2023-02-28T02:12:34.641Z,5.93
2023-02-28T02:13:56.084Z,6.22
2023-02-28T02:15:06.314Z,6.10
2023-02-28T02:16:21.666Z,6.30
2023-02-28T02:17:33.168Z,5.95
2023-02-28T02:18:42.899Z,6.60
2023-02-28T02:20:17.699Z,6.70
2023-02-28T02:21:55.253Z,6.40
2023-02-28T02:23:18.829Z,6.70
2023-02-28T02:24:48.366Z,7.32
2023-02-28T02:25:56.042Z,6.63
2023-02-28T02:27:17.380Z,6.78
2023-02-28T02:29:00.124Z,7.82
2023-02-28T02:30:45.670Z,7.00
2023-02-28T02:32:15.756Z,6.00
2023-02-28T02:33:32.688Z,6.30
2023-02-28T02:34:57.085Z,6.60
2023-02-28T02:36:06.652Z,6.63
2023-02-28T02:37:15.989Z,6.70
2023-02-28T02:38:27.051Z,6.85
2023-02-28T02:39:34.737Z,7.00
2023-02-28T02:40:44.470Z,6.80
2023-02-28T02:41:51.308Z,6.32
2023-02-28T02:42:58.017Z,7.00
2023-02-28T02:44:07.443Z,6.50
2023-02-28T02:45:14.622Z,6.32
2023-02-28T02:46:21.050Z,6.35
2023-02-28T02:47:28.188Z,6.75
2023-02-28T02:48:35.910Z,6.03
2023-02-28T02:49:40.984Z,6.35
2023-02-28T02:50:50.685Z,6.75
2023-02-28T02:51:55.157Z,6.10
2023-02-28T02:53:02.069Z,7.18
2023-02-28T02:54:08.963Z,6.10
2023-02-28T02:55:13.976Z,6.30
2023-02-28T02:56:17.912Z,5.75
2023-02-28T02:57:25.810Z,6.78
2023-02-28T02:58:31.712Z,6.22
2023-02-28T02:59:35.751Z,6.35
2023-02-28T03:00:42.119Z,6.40
2023-02-28T03:01:44.858Z,5.75
2023-02-28T03:02:49.802Z,5.90
2023-02-28T03:03:52.771Z,6.82
2023-02-28T03:05:01.429Z,6.25
2023-02-28T03:06:07.007Z,7.00
2023-02-28T03:07:08.573Z,5.47
2023-02-28T03:08:11.254Z,6.65
2023-02-28T03:09:13.419Z,5.80
2023-02-28T03:10:37.827Z,5.85
2023-02-28T03:11:44.383Z,5.68
2023-02-28T03:12:58.594Z,5.57
2023-02-28T03:14:15.021Z,8.07
2023-02-28T03:15:23.558Z,6.13
2023-02-28T03:16:37.430Z,6.53
2023-02-28T03:18:02.531Z,5.97
2023-02-28T03:19:28.957Z,5.68
2023-02-28T03:20:42.056Z,6.68
2023-02-28T03:21:55.350Z,6.22
2023-02-28T03:23:04.944Z,6.00
2023-02-28T03:24:12.262Z,6.28
2023-02-28T03:25:20.940Z,6.80
2023-02-28T03:26:25.922Z,6.30
2023-02-28T03:27:29.973Z,5.82
2023-02-28T03:28:38.762Z,6.55
2023-02-28T03:29:45.138Z,6.55
2023-02-28T03:30:54.594Z,6.68
2023-02-28T03:32:00.617Z,6.22
2023-02-28T03:33:08.390Z,6.70
2023-02-28T03:34:13.379Z,6.00
2023-02-28T03:35:22.727Z,6.70
2023-02-28T03:36:29.983Z,6.10
2023-02-28T03:37:37.262Z,5.35
2023-02-28T03:38:43.975Z,5.50
2023-02-28T03:39:49.991Z,6.07
2023-02-28T03:40:57.662Z,5.38
2023-02-28T03:42:03.284Z,5.85
2023-02-28T03:43:15.484Z,5.82
2023-02-28T03:44:20.624Z,6.22
2023-02-28T03:45:26.737Z,5.75
2023-02-28T03:46:32.728Z,5.70
2023-02-28T03:47:41.320Z,5.97
2023-02-28T03:48:46.773Z,5.35
2023-02-28T03:49:53.491Z,5.68
2023-02-28T03:55:44.570Z,5.40
2023-02-28T03:56:53.839Z,5.38
2023-02-28T03:58:03.935Z,5.45
2023-02-28T03:59:11.794Z,5.40
2023-02-28T04:00:19.576Z,5.97
2023-02-28T04:01:27.294Z,5.40
2023-02-28T04:02:30.054Z,5.60
2023-02-28T04:03:31.643Z,5.68
2023-02-28T04:04:34.608Z,5.47
2023-02-28T04:05:48.250Z,5.00
2023-02-28T04:06:52.567Z,5.30
2023-02-28T04:07:55.061Z,5.50
2023-02-28T04:08:57.585Z,5.15
2023-02-28T04:09:59.606Z,5.13
2023-02-28T04:11:08.686Z,5.32
2023-02-28T04:12:10.375Z,5.10
2023-02-28T04:13:12.901Z,5.20
2023-02-28T04:14:14.720Z,5.40
2023-02-28T04:15:17.317Z,5.65
2023-02-28T04:16:33.596Z,5.90
2023-02-28T04:17:37.385Z,5.45
2023-02-28T04:18:39.000Z,6.00
2023-02-28T04:19:41.503Z,5.18
2023-02-28T04:20:43.043Z,5.40
2023-02-28T04:21:47.641Z,5.35
2023-02-28T04:22:49.163Z,4.80
2023-02-28T04:23:51.698Z,5.50
2023-02-28T04:24:54.546Z,4.55
2023-02-28T04:25:57.147Z,5.30
2023-02-28T04:27:00.039Z,5.30
2023-02-28T04:28:02.541Z,5.03
2023-02-28T04:29:06.079Z,5.65
2023-02-28T04:30:09.639Z,5.25
2023-02-28T04:31:11.577Z,5.90
2023-02-28T04:32:14.557Z,4.80
2023-02-28T04:33:16.172Z,4.90
2023-02-28T04:34:19.899Z,4.72
2023-02-28T04:35:21.478Z,5.88
2023-02-28T04:36:26.384Z,5.50
2023-02-28T04:37:29.763Z,4.80
2023-02-28T04:38:34.754Z,4.93
2023-02-28T04:39:37.832Z,4.95
2023-02-28T04:40:40.431Z,4.80
2023-02-28T04:41:42.111Z,5.13
2023-02-28T04:42:45.969Z,5.07
2023-02-28T04:43:47.583Z,4.80
2023-02-28T04:44:50.071Z,5.65
2023-02-28T04:45:51.605Z,4.32
2023-02-28T04:46:54.130Z,5.20
2023-02-28T04:47:55.733Z,4.90
2023-02-28T04:48:59.017Z,4.70
2023-02-28T04:50:00.827Z,5.68
2023-02-28T04:51:04.077Z,4.47
2023-02-28T04:52:05.786Z,5.32
2023-02-28T04:53:08.292Z,4.55
2023-02-28T04:54:10.344Z,4.75
2023-02-28T04:55:12.816Z,5.47
2023-02-28T04:56:16.027Z,4.50
2023-02-28T04:57:18.539Z,4.30
2023-02-28T04:58:23.907Z,4.60
2023-02-28T04:59:26.425Z,4.72
2023-02-28T05:00:28.041Z,4.88
2023-02-28T05:01:33.192Z,4.45
2023-02-28T05:02:35.534Z,4.60
2023-02-28T05:03:38.080Z,4.18
2023-02-28T05:04:40.633Z,4.85
2023-02-28T05:05:42.234Z,5.03
2023-02-28T05:06:45.149Z,4.80
2023-02-28T05:07:46.698Z,5.00
2023-02-28T05:08:49.465Z,5.65
2023-02-28T05:09:51.003Z,4.88
2023-02-28T05:10:53.499Z,4.20
2023-02-28T05:11:55.799Z,3.83
2023-02-28T05:12:58.360Z,4.65
2023-02-28T05:14:01.605Z,4.72
2023-02-28T05:15:05.821Z,4.45
2023-02-28T05:16:08.112Z,5.28
2023-02-28T05:17:11.426Z,5.00
2023-02-28T05:18:13.112Z,5.40
2023-02-28T05:19:16.074Z,4.85
2023-02-28T05:20:18.226Z,5.03
2023-02-28T05:21:27.854Z,4.32
2023-02-28T05:22:30.639Z,5.72
2023-02-28T05:23:32.561Z,4.82
2023-02-28T05:24:35.016Z,4.50
2023-02-28T05:25:36.603Z,5.05
2023-02-28T05:26:41.022Z,4.22
2023-02-28T05:27:42.789Z,4.32
2023-02-28T05:28:45.286Z,5.28
2023-02-28T05:29:49.141Z,4.78
2023-02-28T05:30:50.664Z,4.70
2023-02-28T05:31:53.450Z,6.60
2023-02-28T05:32:55.712Z,5.50
2023-02-28T05:33:58.172Z,5.00
2023-02-28T05:34:59.716Z,4.45
2023-02-28T05:36:02.403Z,5.30
2023-02-28T05:37:04.344Z,4.80
2023-02-28T05:38:07.277Z,4.70
2023-02-28T05:39:13.257Z,5.00
2023-02-28T05:40:16.353Z,4.85
2023-02-28T05:41:20.299Z,4.50
2023-02-28T05:42:23.618Z,4.75
2023-02-28T05:43:26.163Z,4.60
2023-02-28T05:44:29.138Z,4.57
2023-02-28T05:45:32.097Z,4.80
2023-02-28T05:46:34.627Z,4.93
2023-02-28T05:47:36.874Z,4.35
2023-02-28T05:48:41.420Z,4.70
2023-02-28T05:49:44.292Z,5.10
2023-02-28T05:50:46.969Z,4.38
2023-02-28T05:51:49.736Z,4.65
2023-02-28T05:52:51.565Z,4.43
2023-02-28T05:53:54.061Z,5.05
2023-02-28T05:54:55.594Z,4.57
2023-02-28T05:55:58.342Z,4.25
2023-02-28T05:56:59.921Z,4.82
2023-02-28T05:58:02.642Z,4.88
2023-02-28T05:59:09.666Z,5.20
2023-02-28T06:00:15.864Z,4.85
2023-02-28T06:01:24.993Z,5.68
2023-02-28T06:02:27.925Z,5.43
2023-02-28T06:03:29.492Z,4.70
2023-02-28T06:04:36.980Z,5.72
2023-02-28T06:05:39.402Z,4.50
2023-02-28T06:06:42.108Z,5.22
2023-02-28T06:07:45.435Z,4.85
2023-02-28T06:08:47.970Z,5.10
2023-02-28T06:09:49.490Z,4.50
2023-02-28T06:10:51.986Z,5.55
2023-02-28T06:11:55.002Z,4.35
2023-02-28T06:12:56.575Z,5.15
2023-02-28T06:14:01.641Z,4.88
2023-02-28T06:15:03.574Z,5.35
2023-02-28T06:16:06.693Z,4.90
2023-02-28T06:17:10.578Z,5.30
2023-02-28T06:18:13.132Z,4.72
2023-02-28T06:19:15.960Z,5.15
2023-02-28T06:20:18.849Z,5.03
2023-02-28T06:21:20.651Z,5.55
2023-02-28T06:22:23.437Z,4.60
2023-02-28T06:23:25.061Z,5.40
2023-02-28T06:24:28.835Z,4.20
2023-02-28T06:25:30.427Z,5.03
2023-02-28T06:26:33.350Z,5.30
2023-02-28T06:27:35.015Z,4.97
2023-02-28T06:28:41.968Z,4.85
2023-02-28T06:29:44.676Z,4.93
2023-02-28T06:30:46.666Z,4.70
2023-02-28T06:31:49.547Z,5.15
2023-02-28T06:32:52.981Z,5.20
2023-02-28T06:33:55.618Z,4.50
2023-02-28T06:34:59.043Z,4.85
2023-02-28T06:36:02.340Z,4.70
2023-02-28T06:37:04.009Z,4.60
2023-02-28T06:38:06.518Z,5.53
2023-02-28T06:39:09.110Z,5.55
2023-02-28T06:40:13.931Z,5.07
2023-02-28T06:41:15.503Z,5.03
2023-02-28T06:42:18.219Z,5.25
2023-02-28T06:43:19.740Z,4.80
2023-02-28T06:44:23.388Z,5.10
2023-02-28T06:45:27.002Z,5.20
2023-02-28T06:46:29.521Z,5.30
2023-02-28T06:47:32.126Z,5.28
2023-02-28T06:48:36.214Z,5.00
2023-02-28T06:49:39.974Z,4.88
2023-02-28T06:50:42.550Z,4.70
2023-02-28T06:51:45.984Z,4.40
2023-02-28T06:52:48.557Z,5.03
2023-02-28T06:53:50.122Z,5.20
2023-02-28T06:55:00.623Z,5.45
2023-02-28T06:56:07.162Z,5.80
2023-02-28T06:57:09.885Z,5.72
2023-02-28T06:58:19.476Z,5.57
2023-02-28T06:59:22.607Z,4.85
2023-02-28T07:00:26.222Z,4.95
2023-02-28T07:01:29.068Z,5.40
2023-02-28T07:02:32.538Z,5.43
2023-02-28T07:03:35.972Z,4.20
2023-02-28T07:04:40.447Z,4.78
2023-02-28T07:05:42.185Z,5.00
2023-02-28T07:06:44.678Z,4.97
2023-02-28T07:07:47.830Z,4.60
2023-02-28T07:08:50.774Z,4.50
2023-02-28T07:09:52.320Z,4.75
2023-02-28T07:10:55.249Z,4.32
2023-02-28T07:11:57.348Z,4.90
2023-02-28T07:12:59.827Z,4.60
2023-02-28T07:14:02.337Z,4.65
2023-02-28T07:15:05.549Z,5.13
2023-02-28T07:16:11.568Z,4.30
2023-02-28T07:17:13.387Z,4.07
2023-02-28T07:18:15.891Z,4.75
2023-02-28T07:19:19.746Z,4.15
2023-02-28T07:20:21.347Z,4.22
2023-02-28T07:21:24.135Z,3.88
2023-02-28T07:22:26.812Z,4.43
2023-02-28T07:23:28.325Z,4.40
2023-02-28T07:24:30.942Z,3.90
2023-02-28T07:25:32.860Z,5.72
2023-02-28T07:26:35.990Z,4.20
2023-02-28T07:27:37.558Z,3.92
2023-02-28T07:28:40.110Z,3.72
2023-02-28T07:29:42.585Z,3.60
2023-02-28T07:30:44.231Z,4.20
2023-02-28T07:31:47.470Z,4.05
2023-02-28T07:32:49.098Z,4.15
2023-02-28T07:33:51.681Z,4.15
2023-02-28T07:34:54.804Z,4.10
2023-02-28T07:36:02.830Z,4.45
2023-02-28T07:37:06.353Z,4.18
2023-02-28T07:38:08.474Z,4.22
2023-02-28T07:39:11.292Z,3.72
2023-02-28T07:40:14.085Z,3.38
2023-02-28T07:41:17.336Z,3.90
2023-02-28T07:42:19.028Z,3.85
2023-02-28T07:43:21.515Z,4.43
2023-02-28T07:44:23.185Z,4.35
2023-02-28T07:45:25.781Z,3.75
2023-02-28T07:46:30.470Z,4.55
2023-02-28T07:47:33.750Z,3.55
2023-02-28T07:48:36.678Z,3.78
2023-02-28T07:49:39.269Z,4.90
2023-02-28T07:50:42.212Z,4.15
2023-02-28T07:51:44.715Z,4.10
2023-02-28T07:52:46.306Z,3.42
2023-02-28T07:53:48.798Z,3.75
2023-02-28T07:54:50.503Z,3.35
2023-02-28T07:55:56.401Z,4.10
2023-02-28T07:56:59.278Z,3.50
2023-02-28T07:58:01.038Z,3.70
2023-02-28T07:59:03.692Z,4.28
2023-02-28T08:00:07.601Z,3.15
2023-02-28T08:01:12.412Z,4.55
2023-02-28T08:02:15.572Z,3.78
2023-02-28T08:03:19.018Z,2.90
2023-02-28T08:04:21.610Z,3.45
2023-02-28T08:05:23.300Z,3.13
2023-02-28T08:06:27.380Z,2.15
2023-02-28T08:07:29.134Z,3.35
2023-02-28T08:08:32.171Z,2.50
2023-02-28T08:09:35.069Z,2.90
2023-02-28T08:10:38.469Z,2.92
2023-02-28T08:11:40.012Z,2.97
2023-02-28T08:12:42.495Z,2.25
2023-02-28T08:13:44.866Z,2.70
2023-02-28T08:14:47.819Z,2.63
2023-02-28T08:15:49.342Z,2.90
2023-02-28T08:16:51.851Z,3.30
2023-02-28T08:17:53.482Z,2.90
2023-02-28T08:18:56.001Z,2.85
2023-02-28T08:19:57.531Z,3.00
2023-02-28T08:21:00.161Z,2.88
2023-02-28T08:22:04.076Z,2.40
2023-02-28T08:23:06.549Z,3.15
2023-02-28T08:24:08.512Z,2.80
2023-02-28T08:25:11.313Z,3.38
2023-02-28T08:26:12.847Z,2.47
2023-02-28T08:27:15.437Z,3.50
2023-02-28T08:28:17.013Z,3.38
2023-02-28T08:29:19.611Z,2.70
2023-02-28T08:30:21.361Z,2.50
2023-02-28T08:31:23.972Z,2.58
2023-02-28T08:32:30.096Z,2.88
2023-02-28T08:33:32.365Z,2.42
2023-02-28T08:34:34.918Z,2.65
2023-02-28T08:35:37.352Z,2.90
2023-02-28T08:36:41.128Z,3.58
2023-02-28T08:37:45.080Z,2.65
2023-02-28T08:38:46.885Z,2.55
2023-02-28T08:39:49.407Z,2.95
2023-02-28T08:40:52.395Z,2.78
2023-02-28T08:42:06.745Z,2.50
2023-02-28T08:43:09.904Z,2.58
2023-02-28T08:44:12.372Z,2.92
2023-02-28T08:45:16.162Z,2.88
2023-02-28T08:46:18.690Z,2.50
2023-02-28T08:47:20.539Z,2.22
2023-02-28T08:48:23.074Z,2.25
2023-02-28T08:49:25.629Z,2.20
2023-02-28T08:50:27.199Z,2.50
2023-02-28T08:51:31.075Z,2.03
2023-02-28T08:52:32.772Z,2.50
2023-02-28T08:53:37.046Z,2.22
2023-02-28T08:54:39.565Z,2.30
2023-02-28T08:55:42.050Z,2.55
2023-02-28T08:56:43.854Z,2.22
2023-02-28T08:57:46.367Z,2.60
2023-02-28T08:58:49.281Z,2.45
2023-02-28T08:59:52.373Z,3.00
2023-02-28T09:01:10.482Z,2.67
2023-02-28T09:02:14.966Z,2.33
2023-02-28T09:03:16.531Z,2.90
2023-02-28T09:04:20.609Z,2.42
2023-02-28T09:05:23.929Z,2.55
2023-02-28T09:06:29.573Z,1.67
2023-02-28T09:07:31.363Z,2.20
2023-02-28T09:08:35.660Z,2.15
2023-02-28T09:09:38.445Z,2.60
2023-02-28T09:10:39.994Z,2.65
2023-02-28T09:11:42.607Z,2.58
2023-02-28T09:12:46.872Z,2.65
2023-02-28T09:13:49.388Z,3.05
2023-02-28T09:14:51.513Z,2.70
2023-02-28T09:15:54.108Z,2.65
2023-02-28T09:16:56.698Z,2.58
2023-02-28T09:17:58.367Z,2.72
2023-02-28T09:19:00.955Z,3.15
2023-02-28T09:20:03.523Z,2.60
2023-02-28T09:21:06.233Z,2.33
2023-02-28T09:22:08.741Z,2.30
2023-02-28T09:23:11.702Z,2.78
2023-02-28T09:24:16.122Z,2.50
2023-02-28T09:25:19.201Z,2.95
2023-02-28T09:26:24.134Z,2.55
2023-02-28T09:27:26.760Z,2.35
2023-02-28T09:28:28.351Z,2.47
2023-02-28T09:29:30.888Z,2.28
2023-02-28T09:30:33.479Z,2.30
2023-02-28T09:31:35.024Z,2.60
2023-02-28T09:32:37.495Z,2.42
2023-02-28T09:33:39.003Z,2.55
2023-02-28T09:34:41.799Z,2.10
2023-02-28T09:35:45.069Z,1.85
2023-02-28T09:36:48.654Z,2.10
2023-02-28T09:37:52.687Z,2.45
2023-02-28T09:38:55.172Z,2.30
2023-02-28T09:39:58.383Z,2.50
2023-02-28T09:41:03.396Z,2.05
2023-02-28T09:42:08.591Z,2.30
2023-02-28T09:43:15.769Z,2.20
2023-02-28T09:44:24.374Z,2.10
2023-02-28T09:45:33.456Z,2.60
2023-02-28T09:46:41.529Z,2.40
2023-02-28T09:47:46.190Z,2.60
2023-02-28T09:48:51.209Z,1.98
2023-02-28T09:49:53.982Z,2.20
2023-02-28T09:51:04.227Z,2.30
2023-02-28T09:52:11.074Z,2.45
2023-02-28T09:53:23.375Z,2.28
2023-02-28T09:54:29.680Z,2.20
2023-02-28T09:55:46.562Z,2.28
2023-02-28T09:56:54.333Z,2.45
2023-02-28T09:57:57.563Z,2.20
2023-02-28T09:59:07.566Z,2.50
2023-02-28T10:00:19.193Z,2.50
2023-02-28T10:01:30.265Z,2.15
2023-02-28T10:03:00.168Z,2.50
2023-02-28T10:04:07.890Z,2.40
2023-02-28T10:05:13.361Z,2.70
2023-02-28T10:06:20.417Z,2.33
2023-02-28T10:07:44.983Z,1.63
2023-02-28T10:08:55.570Z,2.10
2023-02-28T10:10:01.251Z,2.45
2023-02-28T10:11:10.041Z,2.38
2023-02-28T10:12:13.603Z,2.35
2023-02-28T10:13:24.458Z,2.05
2023-02-28T10:14:30.463Z,2.35
2023-02-28T10:15:35.044Z,2.10
2023-02-28T10:16:41.173Z,2.10
2023-02-28T10:17:55.261Z,2.00
2023-02-28T10:19:07.504Z,2.50
2023-02-28T10:20:14.374Z,2.20
2023-02-28T10:21:22.953Z,2.70
2023-02-28T10:22:28.761Z,2.45
2023-02-28T10:23:36.753Z,2.60
2023-02-28T10:24:41.536Z,2.30
2023-02-28T10:25:48.911Z,2.80
2023-02-28T10:26:58.029Z,2.70
2023-02-28T10:28:32.824Z,2.60
2023-02-28T10:29:34.727Z,1.73
2023-02-28T10:30:40.498Z,2.33
2023-02-28T10:31:43.183Z,2.00
2023-02-28T10:32:51.674Z,2.20
2023-02-28T10:33:54.426Z,2.25
2023-02-28T10:35:00.967Z,2.25
2023-02-28T10:36:07.507Z,2.65
2023-02-28T10:37:10.913Z,2.15
2023-02-28T10:38:20.754Z,2.13
2023-02-28T10:39:38.540Z,1.70
2023-02-28T10:40:40.093Z,2.33
2023-02-28T10:41:45.428Z,1.85
2023-02-28T10:42:56.806Z,2.10
2023-02-28T10:44:19.886Z,2.20
2023-02-28T10:45:21.636Z,3.05
2023-02-28T10:46:27.732Z,2.35
2023-02-28T10:47:29.678Z,2.30
2023-02-28T10:48:36.034Z,3.50
2023-02-28T10:49:41.356Z,2.33
2023-02-28T10:50:46.717Z,2.85
2023-02-28T10:51:53.525Z,2.40
2023-02-28T10:52:55.689Z,2.50
2023-02-28T10:54:02.632Z,2.63
2023-02-28T10:55:23.577Z,2.42
2023-02-28T10:56:26.783Z,1.75
2023-02-28T10:57:32.505Z,2.40
2023-02-28T10:58:50.362Z,2.17
2023-02-28T10:59:55.839Z,2.50
2023-02-28T11:00:58.148Z,2.38
2023-02-28T11:02:00.784Z,2.40
2023-02-28T11:03:03.438Z,2.20
2023-02-28T11:04:20.251Z,2.40
2023-02-28T11:05:30.851Z,1.73
2023-02-28T11:06:35.560Z,2.47
2023-02-28T11:07:50.590Z,2.20
2023-02-28T11:08:57.722Z,2.03
2023-02-28T11:09:59.583Z,2.47
2023-02-28T11:11:07.845Z,2.20
2023-02-28T11:12:22.666Z,2.40
2023-02-28T11:13:29.539Z,2.50
2023-02-28T11:14:37.620Z,2.00
2023-02-28T11:15:40.312Z,1.58
2023-02-28T11:16:42.897Z,2.03
2023-02-28T11:17:44.542Z,2.58
2023-02-28T11:18:51.419Z,2.55
2023-02-28T11:19:56.185Z,2.00
2023-02-28T11:21:01.495Z,2.00
2023-02-28T11:22:05.846Z,2.50
2023-02-28T11:23:16.230Z,2.30
2023-02-28T11:24:26.581Z,2.10
2023-02-28T11:25:31.072Z,2.20
2023-02-28T11:26:42.714Z,1.92
2023-02-28T11:27:48.347Z,2.25
2023-02-28T11:29:10.402Z,1.92
2023-02-28T11:30:34.791Z,1.90
2023-02-28T11:31:37.370Z,2.30
2023-02-28T11:32:49.629Z,2.17
2023-02-28T11:33:53.970Z,2.08
2023-02-28T11:35:03.519Z,2.50
2023-02-28T11:36:13.964Z,2.38
2023-02-28T11:37:18.602Z,2.10
2023-02-28T11:38:21.423Z,2.00
2023-02-28T11:39:25.369Z,2.25
2023-02-28T11:40:38.843Z,2.55
2023-02-28T11:41:57.490Z,2.15
2023-02-28T11:43:18.249Z,1.90
2023-02-28T11:44:27.814Z,2.13
2023-02-28T11:45:46.117Z,2.15
2023-02-28T11:46:52.190Z,1.90
2023-02-28T11:48:03.732Z,1.90
2023-02-28T11:49:22.402Z,1.70
2023-02-28T11:50:41.060Z,2.55
2023-02-28T11:51:53.834Z,2.15
2023-02-28T11:53:04.747Z,2.20
2023-02-28T11:54:30.301Z,2.60
2023-02-28T11:55:37.547Z,2.20
2023-02-28T11:56:45.100Z,1.60
2023-02-28T11:58:05.154Z,2.15
2023-02-28T11:59:36.081Z,2.08
2023-02-28T12:00:51.352Z,2.10
2023-02-28T12:02:24.200Z,2.35
2023-02-28T12:03:33.484Z,2.50
2023-02-28T12:04:43.832Z,1.98
2023-02-28T12:05:47.787Z,2.00
2023-02-28T12:06:58.914Z,2.20
2023-02-28T12:08:13.383Z,2.10
2023-02-28T12:09:34.561Z,2.33
2023-02-28T12:10:56.247Z,2.40
2023-02-28T12:12:06.592Z,2.50
2023-02-28T12:13:20.016Z,2.28
2023-02-28T12:15:14.515Z,2.08
2023-02-28T12:16:37.649Z,2.08
2023-02-28T12:17:53.101Z,3.20
2023-02-28T12:19:09.977Z,2.13
2023-02-28T12:20:23.327Z,2.45
2023-02-28T12:21:34.856Z,2.28
2023-02-28T12:22:44.542Z,2.60
2023-02-28T12:24:03.807Z,2.00
2023-02-28T12:25:26.077Z,2.42
2023-02-28T12:26:37.567Z,2.80
2023-02-28T12:27:42.988Z,1.85
2023-02-28T12:28:50.804Z,1.88
2023-02-28T12:29:57.763Z,3.00
2023-02-28T12:31:05.689Z,2.70
2023-02-28T12:32:16.082Z,2.55
2023-02-28T12:33:24.425Z,2.38
2023-02-28T12:34:30.754Z,2.60
2023-02-28T12:35:38.797Z,3.20
2023-02-28T12:36:42.556Z,2.50
2023-02-28T12:37:49.289Z,2.40
2023-02-28T12:38:56.665Z,2.63
2023-02-28T12:40:06.753Z,2.53
2023-02-28T12:41:14.597Z,2.60
2023-02-28T12:42:25.626Z,2.63
2023-02-28T12:43:35.104Z,2.40
2023-02-28T12:44:46.476Z,3.00
2023-02-28T12:45:52.300Z,2.80
2023-02-28T12:47:01.903Z,2.40
2023-02-28T12:48:08.934Z,2.50
2023-02-28T12:49:17.445Z,2.60
2023-02-28T12:50:20.682Z,2.50
2023-02-28T12:51:24.017Z,3.40
2023-02-28T12:52:32.426Z,2.75
2023-02-28T12:53:50.629Z,2.75
2023-02-28T12:54:58.440Z,2.63
2023-02-28T12:56:13.938Z,3.15
2023-02-28T12:57:24.783Z,2.67
2023-02-28T12:58:31.641Z,2.78
2023-02-28T12:59:40.244Z,2.95
2023-02-28T13:01:06.481Z,2.92
2023-02-28T13:02:31.223Z,2.72
2023-02-28T13:04:01.588Z,2.28
2023-02-28T13:05:22.028Z,2.45
2023-02-28T13:06:45.891Z,3.08
2023-02-28T13:08:05.179Z,3.05
2023-02-28T13:09:13.264Z,2.60
2023-02-28T13:10:17.492Z,2.72
2023-02-28T13:11:30.143Z,3.45
2023-02-28T13:12:32.732Z,2.83
2023-02-28T13:13:39.099Z,2.75
2023-02-28T13:14:42.347Z,2.70
2023-02-28T13:15:59.782Z,2.50
2023-02-28T13:17:12.166Z,2.88
2023-02-28T13:18:30.760Z,2.90
2023-02-28T13:19:36.841Z,3.00
2023-02-28T13:20:52.127Z,2.60
2023-02-28T13:21:54.171Z,2.35
2023-02-28T13:22:58.077Z,2.20
2023-02-28T13:24:02.650Z,2.40
2023-02-28T13:25:52.167Z,2.90
2023-02-28T13:27:33.555Z,2.67
2023-02-28T13:29:00.627Z,2.78
2023-02-28T13:30:23.684Z,2.50
2023-02-28T13:31:29.036Z,2.40
2023-02-28T13:32:39.582Z,3.85
2023-02-28T13:34:08.161Z,2.60
2023-02-28T13:35:46.996Z,2.45
2023-02-28T13:36:49.748Z,2.75
2023-02-28T13:37:52.623Z,2.65
2023-02-28T13:39:00.816Z,3.00
2023-02-28T13:40:28.942Z,2.85
2023-02-28T13:41:49.390Z,2.33
2023-02-28T13:42:51.320Z,2.10
2023-02-28T13:44:06.280Z,2.50
2023-02-28T13:45:27.651Z,3.08
2023-02-28T13:46:33.327Z,2.60
2023-02-28T13:47:38.580Z,2.70
2023-02-28T13:48:41.629Z,2.40
2023-02-28T13:49:43.301Z,3.17
2023-02-28T13:50:47.185Z,3.03
2023-02-28T13:51:50.839Z,2.25
2023-02-28T13:53:13.409Z,2.58
2023-02-28T13:54:26.366Z,2.88
2023-02-28T13:55:33.957Z,2.92
2023-02-28T13:56:47.205Z,2.63
2023-02-28T13:58:13.559Z,2.20
2023-02-28T13:59:27.938Z,2.75
2023-02-28T14:00:43.670Z,3.33
2023-02-28T14:01:59.644Z,2.78
2023-02-28T14:03:16.845Z,2.55
2023-02-28T14:04:50.069Z,2.58
2023-02-28T14:06:19.126Z,2.88
2023-02-28T14:07:25.240Z,2.95
2023-02-28T14:08:27.916Z,2.60
2023-02-28T14:09:34.908Z,3.10
2023-02-28T14:10:43.649Z,2.90
2023-02-28T14:11:47.129Z,3.08
2023-02-28T14:13:14.732Z,2.72
2023-02-28T14:14:50.728Z,3.28
2023-02-28T14:15:58.957Z,2.55
2023-02-28T14:17:03.769Z,2.97
2023-02-28T14:18:16.459Z,2.75
2023-02-28T14:19:25.813Z,2.65
2023-02-28T14:20:31.399Z,2.80
2023-02-28T14:21:37.421Z,3.63
2023-02-28T14:22:55.645Z,3.10
2023-02-28T14:24:36.638Z,3.72
2023-02-28T14:25:44.446Z,2.85
2023-02-28T14:27:17.518Z,2.75
2023-02-28T14:28:30.725Z,3.00
2023-02-28T14:29:48.098Z,2.42
2023-02-28T14:30:59.459Z,2.50
2023-02-28T14:32:12.190Z,2.90
2023-02-28T14:33:38.594Z,3.10
2023-02-28T14:34:47.995Z,3.03
2023-02-28T14:36:14.351Z,2.90
2023-02-28T14:37:31.627Z,3.28
2023-02-28T14:38:37.165Z,3.58
2023-02-28T14:39:44.605Z,3.00
2023-02-28T14:40:48.450Z,2.90
2023-02-28T14:41:51.545Z,3.70
2023-02-28T14:42:57.663Z,3.20
2023-02-28T14:44:02.554Z,2.03
2023-02-28T14:45:05.675Z,3.50
2023-02-28T14:46:08.711Z,3.60
2023-02-28T14:47:17.595Z,3.00
2023-02-28T14:48:22.082Z,3.78
2023-02-28T14:49:29.112Z,2.90
2023-02-28T14:50:33.523Z,3.05
2023-02-28T14:51:37.002Z,2.58
2023-02-28T14:52:38.579Z,3.15